sensor_id;sensor_type;location;lat;lon;timestamp;temperature;humidity
39033;DHT22;24794;51.982;5.878;2022-08-11T00:01:05;24.40;63.70
39033;DHT22;24794;51.982;5.878;2022-08-11T00:02:07;24.40;63.80
39033;DHT22;24794;51.982;5.878;2022-08-11T00:03:13;24.40;63.90
39033;DHT22;24794;51.982;5.878;2022-08-11T00:04:14;24.40;64.00
39033;DHT22;24794;51.982;5.878;2022-08-11T00:05:19;24.40;64.10
39033;DHT22;24794;51.982;5.878;2022-08-11T00:06:25;24.30;64.70
39033;DHT22;24794;51.982;5.878;2022-08-11T00:07:27;24.30;64.10
39033;DHT22;24794;51.982;5.878;2022-08-11T00:08:30;24.30;64.20
39033;DHT22;24794;51.982;5.878;2022-08-11T00:09:37;24.30;64.30
39033;DHT22;24794;51.982;5.878;2022-08-11T00:10:38;24.30;64.40
39033;DHT22;24794;51.982;5.878;2022-08-11T00:11:43;24.30;64.40
39033;DHT22;24794;51.982;5.878;2022-08-11T00:12:56;24.30;64.40
39033;DHT22;24794;51.982;5.878;2022-08-11T00:13:58;24.20;64.40
39033;DHT22;24794;51.982;5.878;2022-08-11T00:15:00;24.20;64.40
39033;DHT22;24794;51.982;5.878;2022-08-11T00:16:02;24.20;64.50
39033;DHT22;24794;51.982;5.878;2022-08-11T00:17:07;24.20;64.60
39033;DHT22;24794;51.982;5.878;2022-08-11T00:18:10;24.20;64.60
39033;DHT22;24794;51.982;5.878;2022-08-11T00:19:12;24.20;64.70
39033;DHT22;24794;51.982;5.878;2022-08-11T00:20:19;24.20;64.70
39033;DHT22;24794;51.982;5.878;2022-08-11T00:21:21;24.10;64.70
39033;DHT22;24794;51.982;5.878;2022-08-11T00:22:23;24.10;64.70
39033;DHT22;24794;51.982;5.878;2022-08-11T00:23:25;24.10;64.90
39033;DHT22;24794;51.982;5.878;2022-08-11T00:24:33;24.10;64.90
39033;DHT22;24794;51.982;5.878;2022-08-11T00:25:52;24.10;65.00
39033;DHT22;24794;51.982;5.878;2022-08-11T00:26:54;24.10;65.00
39033;DHT22;24794;51.982;5.878;2022-08-11T00:27:54;24.10;65.10
39033;DHT22;24794;51.982;5.878;2022-08-11T00:28:56;24.10;65.10
39033;DHT22;24794;51.982;5.878;2022-08-11T00:30:08;24.10;65.10
39033;DHT22;24794;51.982;5.878;2022-08-11T00:31:30;24.10;65.20
39033;DHT22;24794;51.982;5.878;2022-08-11T00:32:31;24.10;65.30
39033;DHT22;24794;51.982;5.878;2022-08-11T00:34:37;24.10;65.30
39033;DHT22;24794;51.982;5.878;2022-08-11T00:35:38;24.10;65.30
39033;DHT22;24794;51.982;5.878;2022-08-11T00:36:48;24.00;65.30
39033;DHT22;24794;51.982;5.878;2022-08-11T00:37:53;24.00;65.40
39033;DHT22;24794;51.982;5.878;2022-08-11T00:38:54;24.00;65.40
39033;DHT22;24794;51.982;5.878;2022-08-11T00:40:02;24.00;65.40
39033;DHT22;24794;51.982;5.878;2022-08-11T00:41:38;24.00;65.50
39033;DHT22;24794;51.982;5.878;2022-08-11T00:42:58;24.00;65.60
39033;DHT22;24794;51.982;5.878;2022-08-11T00:44:35;24.00;65.60
39033;DHT22;24794;51.982;5.878;2022-08-11T00:48:47;23.90;65.70
39033;DHT22;24794;51.982;5.878;2022-08-11T00:51:52;23.90;65.80
39033;DHT22;24794;51.982;5.878;2022-08-11T00:53:04;23.90;65.80
39033;DHT22;24794;51.982;5.878;2022-08-11T00:54:42;23.90;65.90
39033;DHT22;24794;51.982;5.878;2022-08-11T00:56:17;23.90;65.90
39033;DHT22;24794;51.982;5.878;2022-08-11T00:57:52;23.90;66.00
39033;DHT22;24794;51.982;5.878;2022-08-11T01:00:37;23.90;66.00
39033;DHT22;24794;51.982;5.878;2022-08-11T01:01:57;23.90;66.10
39033;DHT22;24794;51.982;5.878;2022-08-11T01:03:26;23.90;66.30
39033;DHT22;24794;51.982;5.878;2022-08-11T01:11:17;23.80;66.60
39033;DHT22;24794;51.982;5.878;2022-08-11T01:13:56;23.80;66.70
39033;DHT22;24794;51.982;5.878;2022-08-11T01:24:47;23.70;67.10
39033;DHT22;24794;51.982;5.878;2022-08-11T01:28:36;23.60;67.30
39033;DHT22;24794;51.982;5.878;2022-08-11T01:39:30;23.50;67.80
39033;DHT22;24794;51.982;5.878;2022-08-11T01:40:45;23.50;67.90
39033;DHT22;24794;51.982;5.878;2022-08-11T01:46:55;23.30;68.10
39033;DHT22;24794;51.982;5.878;2022-08-11T01:48:12;23.30;68.10
39033;DHT22;24794;51.982;5.878;2022-08-11T01:49:31;23.40;68.30
39033;DHT22;24794;51.982;5.878;2022-08-11T01:53:52;23.30;68.30
39033;DHT22;24794;51.982;5.878;2022-08-11T01:55:26;23.30;68.30
39033;DHT22;24794;51.982;5.878;2022-08-11T01:56:45;23.30;68.40
39033;DHT22;24794;51.982;5.878;2022-08-11T01:58:11;23.30;68.40
39033;DHT22;24794;51.982;5.878;2022-08-11T01:59:20;23.20;68.40
39033;DHT22;24794;51.982;5.878;2022-08-11T02:00:26;23.20;68.40
39033;DHT22;24794;51.982;5.878;2022-08-11T02:07:09;23.10;68.70
39033;DHT22;24794;51.982;5.878;2022-08-11T02:11:00;23.00;69.70
39033;DHT22;24794;51.982;5.878;2022-08-11T02:12:37;23.00;69.20
39033;DHT22;24794;51.982;5.878;2022-08-11T02:15:07;23.00;69.30
39033;DHT22;24794;51.982;5.878;2022-08-11T02:17:47;22.90;69.90
39033;DHT22;24794;51.982;5.878;2022-08-11T02:19:11;22.90;69.40
39033;DHT22;24794;51.982;5.878;2022-08-11T02:20:44;22.90;69.50
39033;DHT22;24794;51.982;5.878;2022-08-11T02:23:01;22.90;69.50
39033;DHT22;24794;51.982;5.878;2022-08-11T02:23:59;22.80;69.50
39033;DHT22;24794;51.982;5.878;2022-08-11T02:25:10;22.80;69.60
39033;DHT22;24794;51.982;5.878;2022-08-11T02:26:27;22.80;69.80
39033;DHT22;24794;51.982;5.878;2022-08-11T02:27:42;22.80;69.90
39033;DHT22;24794;51.982;5.878;2022-08-11T02:28:53;22.80;69.90
39033;DHT22;24794;51.982;5.878;2022-08-11T02:29:58;22.70;70.00
39033;DHT22;24794;51.982;5.878;2022-08-11T02:31:38;22.70;70.00
39033;DHT22;24794;51.982;5.878;2022-08-11T02:33:21;22.70;70.00
39033;DHT22;24794;51.982;5.878;2022-08-11T02:34:48;22.70;70.10
39033;DHT22;24794;51.982;5.878;2022-08-11T02:37:17;22.70;70.20
39033;DHT22;24794;51.982;5.878;2022-08-11T02:41:42;22.60;70.40
39033;DHT22;24794;51.982;5.878;2022-08-11T02:43:34;22.60;70.50
39033;DHT22;24794;51.982;5.878;2022-08-11T02:45:51;22.60;70.60
39033;DHT22;24794;51.982;5.878;2022-08-11T02:50:14;22.50;70.80
39033;DHT22;24794;51.982;5.878;2022-08-11T02:53:08;22.50;70.90
39033;DHT22;24794;51.982;5.878;2022-08-11T02:54:15;22.60;71.10
39033;DHT22;24794;51.982;5.878;2022-08-11T02:55:21;22.60;71.10
39033;DHT22;24794;51.982;5.878;2022-08-11T02:58:10;22.50;71.10
39033;DHT22;24794;51.982;5.878;2022-08-11T02:59:24;22.50;71.10
39033;DHT22;24794;51.982;5.878;2022-08-11T03:03:35;22.60;71.20
39033;DHT22;24794;51.982;5.878;2022-08-11T03:06:30;22.60;71.20
39033;DHT22;24794;51.982;5.878;2022-08-11T03:08:14;22.60;71.20
39033;DHT22;24794;51.982;5.878;2022-08-11T03:09:39;22.50;71.20
39033;DHT22;24794;51.982;5.878;2022-08-11T03:11:00;22.50;71.30
39033;DHT22;24794;51.982;5.878;2022-08-11T03:12:35;22.50;71.30
39033;DHT22;24794;51.982;5.878;2022-08-11T03:14:09;22.50;71.30
39033;DHT22;24794;51.982;5.878;2022-08-11T03:17:59;22.50;71.60
39033;DHT22;24794;51.982;5.878;2022-08-11T03:20:44;22.40;71.50
39033;DHT22;24794;51.982;5.878;2022-08-11T03:23:08;22.40;71.70
39033;DHT22;24794;51.982;5.878;2022-08-11T03:24:19;22.40;71.80
39033;DHT22;24794;51.982;5.878;2022-08-11T03:28:25;22.40;71.80
39033;DHT22;24794;51.982;5.878;2022-08-11T03:29:39;22.40;71.80
39033;DHT22;24794;51.982;5.878;2022-08-11T03:32:27;22.40;71.80
39033;DHT22;24794;51.982;5.878;2022-08-11T03:33:35;22.40;71.90
39033;DHT22;24794;51.982;5.878;2022-08-11T03:34:57;22.40;71.90
39033;DHT22;24794;51.982;5.878;2022-08-11T03:37:40;22.40;71.90
39033;DHT22;24794;51.982;5.878;2022-08-11T03:42:17;22.40;72.10
39033;DHT22;24794;51.982;5.878;2022-08-11T03:45:56;22.30;72.20
39033;DHT22;24794;51.982;5.878;2022-08-11T03:50:28;22.30;72.40
39033;DHT22;24794;51.982;5.878;2022-08-11T03:55:18;22.20;72.60
39033;DHT22;24794;51.982;5.878;2022-08-11T03:56:56;22.20;72.70
39033;DHT22;24794;51.982;5.878;2022-08-11T04:09:38;22.10;73.00
39033;DHT22;24794;51.982;5.878;2022-08-11T04:13:55;22.10;73.40
39033;DHT22;24794;51.982;5.878;2022-08-11T04:18:27;22.00;73.40
39033;DHT22;24794;51.982;5.878;2022-08-11T04:23:55;22.00;73.60
39033;DHT22;24794;51.982;5.878;2022-08-11T04:25:29;22.00;73.70
39033;DHT22;24794;51.982;5.878;2022-08-11T04:35:04;22.00;73.90
39033;DHT22;24794;51.982;5.878;2022-08-11T04:39:46;21.90;74.00
39033;DHT22;24794;51.982;5.878;2022-08-11T04:53:44;21.80;74.20
39033;DHT22;24794;51.982;5.878;2022-08-11T04:55:19;21.80;74.20
39033;DHT22;24794;51.982;5.878;2022-08-11T04:56:45;21.80;74.30
39033;DHT22;24794;51.982;5.878;2022-08-11T04:58:30;21.80;74.30
39033;DHT22;24794;51.982;5.878;2022-08-11T05:00:07;21.80;74.30
39033;DHT22;24794;51.982;5.878;2022-08-11T05:01:37;21.80;74.30
39033;DHT22;24794;51.982;5.878;2022-08-11T05:04:20;21.80;74.40
39033;DHT22;24794;51.982;5.878;2022-08-11T05:08:52;21.70;74.30
39033;DHT22;24794;51.982;5.878;2022-08-11T05:11:39;21.70;74.20
39033;DHT22;24794;51.982;5.878;2022-08-11T05:13:03;21.80;74.30
39033;DHT22;24794;51.982;5.878;2022-08-11T05:14:31;21.70;74.30
39033;DHT22;24794;51.982;5.878;2022-08-11T05:15:54;21.80;74.40
39033;DHT22;24794;51.982;5.878;2022-08-11T05:17:21;21.70;74.20
39033;DHT22;24794;51.982;5.878;2022-08-11T05:18:50;21.70;74.20
39033;DHT22;24794;51.982;5.878;2022-08-11T05:20:10;21.80;75.00
39033;DHT22;24794;51.982;5.878;2022-08-11T05:21:32;21.80;74.40
39033;DHT22;24794;51.982;5.878;2022-08-11T05:22:51;21.80;74.30
39033;DHT22;24794;51.982;5.878;2022-08-11T05:24:23;21.80;74.30
39033;DHT22;24794;51.982;5.878;2022-08-11T05:25:45;21.80;74.20
39033;DHT22;24794;51.982;5.878;2022-08-11T05:27:06;21.80;74.80
39033;DHT22;24794;51.982;5.878;2022-08-11T05:28:31;21.90;74.30
39033;DHT22;24794;51.982;5.878;2022-08-11T05:30:05;21.90;74.40
39033;DHT22;24794;51.982;5.878;2022-08-11T05:31:32;21.90;74.50
39033;DHT22;24794;51.982;5.878;2022-08-11T05:33:16;21.90;74.50
39033;DHT22;24794;51.982;5.878;2022-08-11T05:34:43;22.00;74.60
39033;DHT22;24794;51.982;5.878;2022-08-11T05:36:04;22.00;74.60
39033;DHT22;24794;51.982;5.878;2022-08-11T05:38:29;22.00;74.50
39033;DHT22;24794;51.982;5.878;2022-08-11T05:39:54;22.10;74.40
39033;DHT22;24794;51.982;5.878;2022-08-11T05:41:19;22.10;74.40
39033;DHT22;24794;51.982;5.878;2022-08-11T05:42:47;22.10;74.50
39033;DHT22;24794;51.982;5.878;2022-08-11T05:44:08;22.10;74.40
39033;DHT22;24794;51.982;5.878;2022-08-11T05:45:28;22.20;74.40
39033;DHT22;24794;51.982;5.878;2022-08-11T05:46:48;22.20;74.20
39033;DHT22;24794;51.982;5.878;2022-08-11T05:48:07;22.20;73.90
39033;DHT22;24794;51.982;5.878;2022-08-11T05:49:29;22.20;73.70
39033;DHT22;24794;51.982;5.878;2022-08-11T05:50:54;22.30;73.70
39033;DHT22;24794;51.982;5.878;2022-08-11T05:52:32;22.30;73.70
39033;DHT22;24794;51.982;5.878;2022-08-11T05:53:55;22.40;73.80
39033;DHT22;24794;51.982;5.878;2022-08-11T05:55:15;22.40;73.70
39033;DHT22;24794;51.982;5.878;2022-08-11T05:56:48;22.40;73.50
39033;DHT22;24794;51.982;5.878;2022-08-11T05:58:04;22.40;73.40
39033;DHT22;24794;51.982;5.878;2022-08-11T05:59:12;22.50;73.40
39033;DHT22;24794;51.982;5.878;2022-08-11T06:00:14;22.50;73.20
39033;DHT22;24794;51.982;5.878;2022-08-11T06:01:32;22.50;73.20
39033;DHT22;24794;51.982;5.878;2022-08-11T06:02:42;22.60;73.30
39033;DHT22;24794;51.982;5.878;2022-08-11T06:03:44;22.60;73.10
39033;DHT22;24794;51.982;5.878;2022-08-11T06:05:04;22.70;73.00
39033;DHT22;24794;51.982;5.878;2022-08-11T06:06:07;22.70;72.70
39033;DHT22;24794;51.982;5.878;2022-08-11T06:07:11;22.70;72.50
39033;DHT22;24794;51.982;5.878;2022-08-11T06:08:12;22.80;72.30
39033;DHT22;24794;51.982;5.878;2022-08-11T06:09:14;22.80;72.10
39033;DHT22;24794;51.982;5.878;2022-08-11T06:11:41;22.80;72.00
39033;DHT22;24794;51.982;5.878;2022-08-11T06:12:42;22.90;71.90
39033;DHT22;24794;51.982;5.878;2022-08-11T06:13:46;22.90;71.90
39033;DHT22;24794;51.982;5.878;2022-08-11T06:14:50;22.90;71.90
39033;DHT22;24794;51.982;5.878;2022-08-11T06:15:53;23.00;71.80
39033;DHT22;24794;51.982;5.878;2022-08-11T06:16:58;23.00;71.40
39033;DHT22;24794;51.982;5.878;2022-08-11T06:18:01;23.00;71.30
39033;DHT22;24794;51.982;5.878;2022-08-11T06:19:04;23.10;71.40
39033;DHT22;24794;51.982;5.878;2022-08-11T06:20:07;23.10;71.30
39033;DHT22;24794;51.982;5.878;2022-08-11T06:21:12;23.10;71.20
39033;DHT22;24794;51.982;5.878;2022-08-11T06:22:19;23.20;71.20
39033;DHT22;24794;51.982;5.878;2022-08-11T06:23:23;23.20;71.20
39033;DHT22;24794;51.982;5.878;2022-08-11T06:24:24;23.30;71.20
39033;DHT22;24794;51.982;5.878;2022-08-11T06:25:35;23.30;70.90
39033;DHT22;24794;51.982;5.878;2022-08-11T06:26:36;23.30;70.60
39033;DHT22;24794;51.982;5.878;2022-08-11T06:27:40;23.30;70.60
39033;DHT22;24794;51.982;5.878;2022-08-11T06:28:44;23.40;71.30
39033;DHT22;24794;51.982;5.878;2022-08-11T06:29:51;23.40;70.80
39033;DHT22;24794;51.982;5.878;2022-08-11T06:30:53;23.50;70.80
39033;DHT22;24794;51.982;5.878;2022-08-11T06:31:58;23.50;70.90
39033;DHT22;24794;51.982;5.878;2022-08-11T06:33:00;23.50;70.70
39033;DHT22;24794;51.982;5.878;2022-08-11T06:34:14;23.60;70.70
39033;DHT22;24794;51.982;5.878;2022-08-11T06:35:24;23.60;70.60
39033;DHT22;24794;51.982;5.878;2022-08-11T06:36:50;23.60;70.30
39033;DHT22;24794;51.982;5.878;2022-08-11T06:38:08;23.70;70.20
39033;DHT22;24794;51.982;5.878;2022-08-11T06:39:19;23.70;70.10
39033;DHT22;24794;51.982;5.878;2022-08-11T06:41:39;23.80;69.90
39033;DHT22;24794;51.982;5.878;2022-08-11T06:45:27;23.90;69.80
39033;DHT22;24794;51.982;5.878;2022-08-11T06:46:32;23.90;69.80
39033;DHT22;24794;51.982;5.878;2022-08-11T06:47:43;23.90;69.80
39033;DHT22;24794;51.982;5.878;2022-08-11T06:48:45;23.90;69.70
39033;DHT22;24794;51.982;5.878;2022-08-11T06:49:47;24.00;69.70
39033;DHT22;24794;51.982;5.878;2022-08-11T06:51:08;24.00;69.70
39033;DHT22;24794;51.982;5.878;2022-08-11T06:52:14;24.10;69.70
39033;DHT22;24794;51.982;5.878;2022-08-11T06:53:18;24.00;69.70
39033;DHT22;24794;51.982;5.878;2022-08-11T06:54:20;24.10;69.70
39033;DHT22;24794;51.982;5.878;2022-08-11T06:55:27;24.10;69.60
39033;DHT22;24794;51.982;5.878;2022-08-11T06:56:48;24.10;69.60
39033;DHT22;24794;51.982;5.878;2022-08-11T06:58:17;24.10;69.50
39033;DHT22;24794;51.982;5.878;2022-08-11T06:59:37;24.20;69.60
39033;DHT22;24794;51.982;5.878;2022-08-11T07:00:57;24.20;69.30
39033;DHT22;24794;51.982;5.878;2022-08-11T07:03:22;24.30;69.20
39033;DHT22;24794;51.982;5.878;2022-08-11T07:04:40;24.20;69.10
39033;DHT22;24794;51.982;5.878;2022-08-11T07:05:56;24.30;69.20
39033;DHT22;24794;51.982;5.878;2022-08-11T07:13:38;24.40;69.00
39033;DHT22;24794;51.982;5.878;2022-08-11T07:15:01;24.40;68.90
39033;DHT22;24794;51.982;5.878;2022-08-11T07:16:26;24.40;68.60
39033;DHT22;24794;51.982;5.878;2022-08-11T07:17:34;24.40;68.30
39033;DHT22;24794;51.982;5.878;2022-08-11T07:18:37;24.30;67.90
39033;DHT22;24794;51.982;5.878;2022-08-11T07:19:59;24.30;68.60
39033;DHT22;24794;51.982;5.878;2022-08-11T07:21:23;24.30;67.90
39033;DHT22;24794;51.982;5.878;2022-08-11T07:22:51;24.40;67.70
39033;DHT22;24794;51.982;5.878;2022-08-11T07:24:16;24.40;67.80
39033;DHT22;24794;51.982;5.878;2022-08-11T07:25:38;24.40;67.80
39033;DHT22;24794;51.982;5.878;2022-08-11T07:26:59;24.40;67.60
39033;DHT22;24794;51.982;5.878;2022-08-11T07:28:29;24.40;67.60
39033;DHT22;24794;51.982;5.878;2022-08-11T07:29:50;24.40;67.70
39033;DHT22;24794;51.982;5.878;2022-08-11T07:30:55;24.40;67.80
39033;DHT22;24794;51.982;5.878;2022-08-11T07:31:58;24.40;68.00
39033;DHT22;24794;51.982;5.878;2022-08-11T07:33:03;24.40;68.10
39033;DHT22;24794;51.982;5.878;2022-08-11T07:35:15;24.50;68.30
39033;DHT22;24794;51.982;5.878;2022-08-11T07:36:17;24.60;68.20
39033;DHT22;24794;51.982;5.878;2022-08-11T07:37:19;24.60;68.20
39033;DHT22;24794;51.982;5.878;2022-08-11T07:38:22;24.60;68.10
39033;DHT22;24794;51.982;5.878;2022-08-11T07:39:43;24.70;68.00
39033;DHT22;24794;51.982;5.878;2022-08-11T07:40:45;24.70;68.00
39033;DHT22;24794;51.982;5.878;2022-08-11T07:41:46;24.80;67.90
39033;DHT22;24794;51.982;5.878;2022-08-11T07:42:49;24.80;68.00
39033;DHT22;24794;51.982;5.878;2022-08-11T07:43:55;24.90;67.90
39033;DHT22;24794;51.982;5.878;2022-08-11T07:45:08;24.90;67.90
39033;DHT22;24794;51.982;5.878;2022-08-11T07:46:28;24.90;67.90
39033;DHT22;24794;51.982;5.878;2022-08-11T07:47:47;25.00;67.80
39033;DHT22;24794;51.982;5.878;2022-08-11T07:49:08;25.00;67.80
39033;DHT22;24794;51.982;5.878;2022-08-11T07:50:28;25.10;67.90
39033;DHT22;24794;51.982;5.878;2022-08-11T07:51:48;25.10;67.20
39033;DHT22;24794;51.982;5.878;2022-08-11T07:53:08;25.20;67.00
39033;DHT22;24794;51.982;5.878;2022-08-11T07:54:10;25.20;67.10
39033;DHT22;24794;51.982;5.878;2022-08-11T07:55:13;25.20;67.20
39033;DHT22;24794;51.982;5.878;2022-08-11T07:56:15;25.20;67.30
39033;DHT22;24794;51.982;5.878;2022-08-11T07:57:19;25.30;67.40
39033;DHT22;24794;51.982;5.878;2022-08-11T07:58:38;25.30;67.30
39033;DHT22;24794;51.982;5.878;2022-08-11T07:59:58;25.30;67.30
39033;DHT22;24794;51.982;5.878;2022-08-11T08:01:20;25.40;66.60
39033;DHT22;24794;51.982;5.878;2022-08-11T08:02:40;25.40;66.40
39033;DHT22;24794;51.982;5.878;2022-08-11T08:04:01;25.40;66.30
39033;DHT22;24794;51.982;5.878;2022-08-11T08:05:20;25.40;66.00
39033;DHT22;24794;51.982;5.878;2022-08-11T08:06:39;25.40;65.90
39033;DHT22;24794;51.982;5.878;2022-08-11T08:07:58;25.50;66.10
39033;DHT22;24794;51.982;5.878;2022-08-11T08:09:19;25.50;66.20
39033;DHT22;24794;51.982;5.878;2022-08-11T08:10:39;25.50;66.40
39033;DHT22;24794;51.982;5.878;2022-08-11T08:11:59;25.60;66.50
39033;DHT22;24794;51.982;5.878;2022-08-11T08:13:19;25.60;66.50
39033;DHT22;24794;51.982;5.878;2022-08-11T08:14:38;25.60;66.40
39033;DHT22;24794;51.982;5.878;2022-08-11T08:15:58;25.70;66.40
39033;DHT22;24794;51.982;5.878;2022-08-11T08:17:17;25.60;66.40
39033;DHT22;24794;51.982;5.878;2022-08-11T08:18:37;25.70;66.50
39033;DHT22;24794;51.982;5.878;2022-08-11T08:19:39;25.70;66.40
39033;DHT22;24794;51.982;5.878;2022-08-11T08:20:48;25.70;66.50
39033;DHT22;24794;51.982;5.878;2022-08-11T08:21:51;25.80;66.50
39033;DHT22;24794;51.982;5.878;2022-08-11T08:22:55;25.70;66.50
39033;DHT22;24794;51.982;5.878;2022-08-11T08:23:57;25.80;66.40
39033;DHT22;24794;51.982;5.878;2022-08-11T08:24:58;25.80;66.40
39033;DHT22;24794;51.982;5.878;2022-08-11T08:26:03;25.80;66.50
39033;DHT22;24794;51.982;5.878;2022-08-11T08:27:05;25.80;66.10
39033;DHT22;24794;51.982;5.878;2022-08-11T08:28:10;25.80;65.30
39033;DHT22;24794;51.982;5.878;2022-08-11T08:29:10;25.90;65.30
39033;DHT22;24794;51.982;5.878;2022-08-11T08:30:30;25.90;65.40
39033;DHT22;24794;51.982;5.878;2022-08-11T08:31:50;25.90;65.60
39033;DHT22;24794;51.982;5.878;2022-08-11T08:32:51;25.90;65.60
39033;DHT22;24794;51.982;5.878;2022-08-11T08:33:53;25.90;65.50
39033;DHT22;24794;51.982;5.878;2022-08-11T08:34:55;25.90;65.10
39033;DHT22;24794;51.982;5.878;2022-08-11T08:36:00;25.90;64.80
39033;DHT22;24794;51.982;5.878;2022-08-11T08:37:11;26.00;64.80
39033;DHT22;24794;51.982;5.878;2022-08-11T08:38:13;25.90;64.60
39033;DHT22;24794;51.982;5.878;2022-08-11T08:39:18;26.00;64.90
39033;DHT22;24794;51.982;5.878;2022-08-11T08:40:19;26.00;65.10
39033;DHT22;24794;51.982;5.878;2022-08-11T08:41:29;26.00;65.10
39033;DHT22;24794;51.982;5.878;2022-08-11T08:42:34;26.00;65.30
39033;DHT22;24794;51.982;5.878;2022-08-11T08:43:37;26.10;65.40
39033;DHT22;24794;51.982;5.878;2022-08-11T08:44:44;26.10;65.40
39033;DHT22;24794;51.982;5.878;2022-08-11T08:45:46;26.10;65.20
39033;DHT22;24794;51.982;5.878;2022-08-11T08:46:53;26.20;65.30
39033;DHT22;24794;51.982;5.878;2022-08-11T08:49:00;26.20;65.90
39033;DHT22;24794;51.982;5.878;2022-08-11T08:50:04;26.20;65.00
39033;DHT22;24794;51.982;5.878;2022-08-11T08:51:10;26.20;64.90
39033;DHT22;24794;51.982;5.878;2022-08-11T08:52:38;26.20;64.90
39033;DHT22;24794;51.982;5.878;2022-08-11T08:53:50;26.30;65.00
39033;DHT22;24794;51.982;5.878;2022-08-11T08:54:55;26.30;64.90
39033;DHT22;24794;51.982;5.878;2022-08-11T08:55:58;26.30;65.30
39033;DHT22;24794;51.982;5.878;2022-08-11T08:57:00;26.30;64.60
39033;DHT22;24794;51.982;5.878;2022-08-11T08:58:04;26.30;64.90
39033;DHT22;24794;51.982;5.878;2022-08-11T08:59:05;26.40;64.70
39033;DHT22;24794;51.982;5.878;2022-08-11T09:00:07;26.40;64.70
39033;DHT22;24794;51.982;5.878;2022-08-11T09:01:09;26.40;64.70
39033;DHT22;24794;51.982;5.878;2022-08-11T09:02:11;26.40;64.80
39033;DHT22;24794;51.982;5.878;2022-08-11T09:03:12;26.40;65.00
39033;DHT22;24794;51.982;5.878;2022-08-11T09:04:14;26.50;65.20
39033;DHT22;24794;51.982;5.878;2022-08-11T09:05:18;26.50;65.30
39033;DHT22;24794;51.982;5.878;2022-08-11T09:06:20;26.50;66.00
39033;DHT22;24794;51.982;5.878;2022-08-11T09:07:22;26.50;65.20
39033;DHT22;24794;51.982;5.878;2022-08-11T09:08:25;26.50;65.20
39033;DHT22;24794;51.982;5.878;2022-08-11T09:09:28;26.50;65.00
39033;DHT22;24794;51.982;5.878;2022-08-11T09:10:29;26.60;64.50
39033;DHT22;24794;51.982;5.878;2022-08-11T09:11:30;26.60;64.60
39033;DHT22;24794;51.982;5.878;2022-08-11T09:12:49;26.60;64.70
39033;DHT22;24794;51.982;5.878;2022-08-11T09:13:51;26.70;64.60
39033;DHT22;24794;51.982;5.878;2022-08-11T09:14:52;26.70;64.50
39033;DHT22;24794;51.982;5.878;2022-08-11T09:16:00;26.70;64.40
39033;DHT22;24794;51.982;5.878;2022-08-11T09:17:01;26.70;64.30
39033;DHT22;24794;51.982;5.878;2022-08-11T09:18:01;26.70;64.30
39033;DHT22;24794;51.982;5.878;2022-08-11T09:19:06;26.80;64.00
39033;DHT22;24794;51.982;5.878;2022-08-11T09:20:12;26.80;64.00
39033;DHT22;24794;51.982;5.878;2022-08-11T09:21:15;26.80;64.00
39033;DHT22;24794;51.982;5.878;2022-08-11T09:22:19;26.80;64.10
39033;DHT22;24794;51.982;5.878;2022-08-11T09:23:39;26.80;63.70
39033;DHT22;24794;51.982;5.878;2022-08-11T09:24:59;26.90;64.10
39033;DHT22;24794;51.982;5.878;2022-08-11T09:26:18;26.90;64.00
39033;DHT22;24794;51.982;5.878;2022-08-11T09:27:38;26.90;63.80
39033;DHT22;24794;51.982;5.878;2022-08-11T09:28:41;26.90;63.60
39033;DHT22;24794;51.982;5.878;2022-08-11T09:29:43;27.00;63.10
39033;DHT22;24794;51.982;5.878;2022-08-11T09:30:47;26.90;62.90
39033;DHT22;24794;51.982;5.878;2022-08-11T09:31:53;27.00;62.90
39033;DHT22;24794;51.982;5.878;2022-08-11T09:32:56;27.00;62.80
39033;DHT22;24794;51.982;5.878;2022-08-11T09:34:00;27.00;62.70
39033;DHT22;24794;51.982;5.878;2022-08-11T09:35:01;27.00;62.70
39033;DHT22;24794;51.982;5.878;2022-08-11T09:36:03;27.00;62.60
39033;DHT22;24794;51.982;5.878;2022-08-11T09:37:24;27.10;62.60
39033;DHT22;24794;51.982;5.878;2022-08-11T09:38:44;27.10;62.50
39033;DHT22;24794;51.982;5.878;2022-08-11T09:40:03;27.10;62.30
39033;DHT22;24794;51.982;5.878;2022-08-11T09:41:24;27.10;62.20
39033;DHT22;24794;51.982;5.878;2022-08-11T09:42:25;27.10;62.20
39033;DHT22;24794;51.982;5.878;2022-08-11T09:43:46;27.20;62.30
39033;DHT22;24794;51.982;5.878;2022-08-11T09:45:06;27.20;62.40
39033;DHT22;24794;51.982;5.878;2022-08-11T09:46:08;27.20;62.40
39033;DHT22;24794;51.982;5.878;2022-08-11T09:47:09;27.20;62.30
39033;DHT22;24794;51.982;5.878;2022-08-11T09:48:14;27.30;62.00
39033;DHT22;24794;51.982;5.878;2022-08-11T09:49:19;27.30;61.80
39033;DHT22;24794;51.982;5.878;2022-08-11T09:50:21;27.30;61.60
39033;DHT22;24794;51.982;5.878;2022-08-11T09:51:22;27.30;61.10
39033;DHT22;24794;51.982;5.878;2022-08-11T09:52:24;27.40;60.40
39033;DHT22;24794;51.982;5.878;2022-08-11T09:53:27;27.40;60.00
39033;DHT22;24794;51.982;5.878;2022-08-11T09:54:29;27.40;59.70
39033;DHT22;24794;51.982;5.878;2022-08-11T09:55:31;27.40;59.60
39033;DHT22;24794;51.982;5.878;2022-08-11T09:56:32;27.40;59.60
39033;DHT22;24794;51.982;5.878;2022-08-11T09:57:51;27.40;59.20
39033;DHT22;24794;51.982;5.878;2022-08-11T09:59:11;27.50;59.30
39033;DHT22;24794;51.982;5.878;2022-08-11T10:00:12;27.50;59.60
39033;DHT22;24794;51.982;5.878;2022-08-11T10:01:17;27.50;59.70
39033;DHT22;24794;51.982;5.878;2022-08-11T10:02:28;27.50;59.80
39033;DHT22;24794;51.982;5.878;2022-08-11T10:03:30;27.50;59.50
39033;DHT22;24794;51.982;5.878;2022-08-11T10:04:39;27.60;59.20
39033;DHT22;24794;51.982;5.878;2022-08-11T10:05:45;27.60;59.00
39033;DHT22;24794;51.982;5.878;2022-08-11T10:07:05;27.60;59.30
39033;DHT22;24794;51.982;5.878;2022-08-11T10:08:11;27.60;59.60
39033;DHT22;24794;51.982;5.878;2022-08-11T10:09:18;27.60;59.70
39033;DHT22;24794;51.982;5.878;2022-08-11T10:10:20;27.70;59.80
39033;DHT22;24794;51.982;5.878;2022-08-11T10:11:23;27.70;59.80
39033;DHT22;24794;51.982;5.878;2022-08-11T10:12:33;27.70;59.80
39033;DHT22;24794;51.982;5.878;2022-08-11T10:13:41;27.70;59.60
39033;DHT22;24794;51.982;5.878;2022-08-11T10:15:09;27.70;59.60
39033;DHT22;24794;51.982;5.878;2022-08-11T10:16:33;27.80;59.80
39033;DHT22;24794;51.982;5.878;2022-08-11T10:17:35;27.80;59.70
39033;DHT22;24794;51.982;5.878;2022-08-11T10:18:41;27.80;59.70
39033;DHT22;24794;51.982;5.878;2022-08-11T10:19:45;27.90;59.70
39033;DHT22;24794;51.982;5.878;2022-08-11T10:20:48;27.90;59.00
39033;DHT22;24794;51.982;5.878;2022-08-11T10:21:50;27.90;58.70
39033;DHT22;24794;51.982;5.878;2022-08-11T10:23:12;27.90;58.50
39033;DHT22;24794;51.982;5.878;2022-08-11T10:24:32;27.90;58.60
39033;DHT22;24794;51.982;5.878;2022-08-11T10:25:52;28.00;58.90